sensor_id;sensor_type;location;lat;lon;timestamp;P1;durP1;ratioP1;P2;durP2;ratioP2
74912;SDS011;63878;55.624;37.304;2023-04-19T00:04:25;7.75;;;5.32;;
74912;SDS011;63878;55.624;37.304;2023-04-19T00:14:26;10.60;;;5.63;;
74912;SDS011;63878;55.624;37.304;2023-04-19T00:24:27;10.47;;;5.20;;
74912;SDS011;63878;55.624;37.304;2023-04-19T00:34:27;8.77;;;6.00;;
74912;SDS011;63878;55.624;37.304;2023-04-19T00:44:28;10.05;;;5.50;;
74912;SDS011;63878;55.624;37.304;2023-04-19T00:54:28;9.60;;;4.57;;
74912;SDS011;63878;55.624;37.304;2023-04-19T01:04:29;7.82;;;4.90;;
74912;SDS011;63878;55.624;37.304;2023-04-19T01:14:30;9.20;;;5.77;;
74912;SDS011;63878;55.624;37.304;2023-04-19T01:24:30;9.48;;;4.88;;
74912;SDS011;63878;55.624;37.304;2023-04-19T01:34:31;9.23;;;4.57;;
74912;SDS011;63878;55.624;37.304;2023-04-19T01:44:32;7.40;;;5.60;;
74912;SDS011;63878;55.624;37.304;2023-04-19T01:54:32;7.93;;;4.72;;
74912;SDS011;63878;55.624;37.304;2023-04-19T02:04:33;8.05;;;4.55;;
74912;SDS011;63878;55.624;37.304;2023-04-19T02:14:34;10.00;;;6.53;;
74912;SDS011;63878;55.624;37.304;2023-04-19T02:24:34;9.32;;;5.55;;
74912;SDS011;63878;55.624;37.304;2023-04-19T02:34:35;9.98;;;6.30;;
74912;SDS011;63878;55.624;37.304;2023-04-19T02:44:35;7.25;;;5.25;;
74912;SDS011;63878;55.624;37.304;2023-04-19T02:54:36;12.07;;;6.88;;
74912;SDS011;63878;55.624;37.304;2023-04-19T03:04:36;12.80;;;7.30;;
74912;SDS011;63878;55.624;37.304;2023-04-19T03:14:37;12.03;;;6.33;;
74912;SDS011;63878;55.624;37.304;2023-04-19T03:24:37;6.82;;;3.90;;
74912;SDS011;63878;55.624;37.304;2023-04-19T03:34:38;11.15;;;6.95;;
74912;SDS011;63878;55.624;37.304;2023-04-19T03:44:38;11.38;;;5.63;;
74912;SDS011;63878;55.624;37.304;2023-04-19T03:54:39;9.20;;;5.75;;
74912;SDS011;63878;55.624;37.304;2023-04-19T04:04:39;13.30;;;8.10;;
74912;SDS011;63878;55.624;37.304;2023-04-19T04:14:40;8.73;;;6.30;;
74912;SDS011;63878;55.624;37.304;2023-04-19T04:24:41;10.07;;;6.20;;
74912;SDS011;63878;55.624;37.304;2023-04-19T04:34:42;11.35;;;5.63;;
74912;SDS011;63878;55.624;37.304;2023-04-19T04:44:43;10.43;;;6.78;;
74912;SDS011;63878;55.624;37.304;2023-04-19T04:54:43;10.35;;;6.60;;
74912;SDS011;63878;55.624;37.304;2023-04-19T05:04:44;14.48;;;7.13;;
74912;SDS011;63878;55.624;37.304;2023-04-19T05:14:45;7.35;;;6.53;;
74912;SDS011;63878;55.624;37.304;2023-04-19T05:24:45;10.10;;;7.83;;
74912;SDS011;63878;55.624;37.304;2023-04-19T05:34:46;9.55;;;5.70;;
74912;SDS011;63878;55.624;37.304;2023-04-19T05:44:46;10.90;;;4.30;;
74912;SDS011;63878;55.624;37.304;2023-04-19T05:54:47;7.80;;;5.07;;
74912;SDS011;63878;55.624;37.304;2023-04-19T06:04:47;11.87;;;6.27;;
74912;SDS011;63878;55.624;37.304;2023-04-19T06:14:48;7.90;;;5.38;;
74912;SDS011;63878;55.624;37.304;2023-04-19T06:24:48;12.50;;;7.05;;
74912;SDS011;63878;55.624;37.304;2023-04-19T06:34:49;11.57;;;5.20;;
74912;SDS011;63878;55.624;37.304;2023-04-19T06:44:50;13.90;;;5.72;;
74912;SDS011;63878;55.624;37.304;2023-04-19T06:54:50;6.50;;;4.00;;
74912;SDS011;63878;55.624;37.304;2023-04-19T07:04:51;9.77;;;5.78;;
74912;SDS011;63878;55.624;37.304;2023-04-19T07:14:52;8.27;;;5.00;;
74912;SDS011;63878;55.624;37.304;2023-04-19T07:24:52;11.33;;;4.93;;
74912;SDS011;63878;55.624;37.304;2023-04-19T07:34:53;9.50;;;5.38;;
74912;SDS011;63878;55.624;37.304;2023-04-19T07:44:54;5.15;;;3.30;;
74912;SDS011;63878;55.624;37.304;2023-04-19T07:54:54;9.60;;;4.13;;
74912;SDS011;63878;55.624;37.304;2023-04-19T08:04:55;7.57;;;3.90;;
74912;SDS011;63878;55.624;37.304;2023-04-19T08:14:55;4.63;;;3.00;;
74912;SDS011;63878;55.624;37.304;2023-04-19T08:24:56;7.05;;;4.13;;
74912;SDS011;63878;55.624;37.304;2023-04-19T08:34:56;8.27;;;4.47;;
74912;SDS011;63878;55.624;37.304;2023-04-19T08:44:57;9.95;;;4.88;;
74912;SDS011;63878;55.624;37.304;2023-04-19T08:55:02;8.45;;;4.95;;
74912;SDS011;63878;55.624;37.304;2023-04-19T09:15:04;5.93;;;3.55;;
74912;SDS011;63878;55.624;37.304;2023-04-19T09:25:06;6.85;;;3.75;;
74912;SDS011;63878;55.624;37.304;2023-04-19T09:35:08;10.00;;;4.72;;
74912;SDS011;63878;55.624;37.304;2023-04-19T09:45:08;4.82;;;3.60;;
74912;SDS011;63878;55.624;37.304;2023-04-19T09:55:10;8.98;;;3.58;;
74912;SDS011;63878;55.624;37.304;2023-04-19T10:05:11;5.50;;;3.70;;
74912;SDS011;63878;55.624;37.304;2023-04-19T10:25:15;6.18;;;3.58;;
74912;SDS011;63878;55.624;37.304;2023-04-19T10:35:21;5.05;;;3.40;;
74912;SDS011;63878;55.624;37.304;2023-04-19T10:45:33;8.35;;;3.95;;
74912;SDS011;63878;55.624;37.304;2023-04-19T10:55:48;7.72;;;3.75;;
74912;SDS011;63878;55.624;37.304;2023-04-19T11:16:22;4.45;;;3.00;;
74912;SDS011;63878;55.624;37.304;2023-04-19T11:26:24;7.88;;;4.35;;
74912;SDS011;63878;55.624;37.304;2023-04-19T11:36:24;4.80;;;3.43;;
74912;SDS011;63878;55.624;37.304;2023-04-19T11:46:25;6.95;;;4.60;;
74912;SDS011;63878;55.624;37.304;2023-04-19T11:56:25;10.07;;;5.73;;
74912;SDS011;63878;55.624;37.304;2023-04-19T12:06:28;10.75;;;4.90;;
74912;SDS011;63878;55.624;37.304;2023-04-19T12:16:29;6.45;;;3.83;;
74912;SDS011;63878;55.624;37.304;2023-04-19T12:26:30;7.13;;;5.65;;
74912;SDS011;63878;55.624;37.304;2023-04-19T12:36:30;7.73;;;5.00;;
74912;SDS011;63878;55.624;37.304;2023-04-19T12:46:31;7.40;;;4.80;;
74912;SDS011;63878;55.624;37.304;2023-04-19T12:56:32;8.37;;;4.27;;
74912;SDS011;63878;55.624;37.304;2023-04-19T13:06:33;6.10;;;4.07;;
74912;SDS011;63878;55.624;37.304;2023-04-19T13:16:33;7.40;;;4.07;;
74912;SDS011;63878;55.624;37.304;2023-04-19T13:26:34;10.10;;;4.07;;
74912;SDS011;63878;55.624;37.304;2023-04-19T13:36:35;5.22;;;3.88;;
74912;SDS011;63878;55.624;37.304;2023-04-19T13:46:36;6.73;;;3.90;;
74912;SDS011;63878;55.624;37.304;2023-04-19T13:56:36;9.07;;;4.57;;
74912;SDS011;63878;55.624;37.304;2023-04-19T14:06:37;9.32;;;3.72;;
74912;SDS011;63878;55.624;37.304;2023-04-19T14:16:37;6.10;;;3.60;;
74912;SDS011;63878;55.624;37.304;2023-04-19T14:26:38;5.53;;;3.38;;
74912;SDS011;63878;55.624;37.304;2023-04-19T14:36:39;6.30;;;3.93;;
74912;SDS011;63878;55.624;37.304;2023-04-19T14:46:39;6.70;;;4.20;;
74912;SDS011;63878;55.624;37.304;2023-04-19T14:56:40;8.50;;;4.37;;
74912;SDS011;63878;55.624;37.304;2023-04-19T15:06:40;4.70;;;3.83;;
74912;SDS011;63878;55.624;37.304;2023-04-19T15:16:41;6.30;;;3.97;;
74912;SDS011;63878;55.624;37.304;2023-04-19T15:26:42;5.57;;;3.10;;
74912;SDS011;63878;55.624;37.304;2023-04-19T15:36:43;6.13;;;3.47;;
74912;SDS011;63878;55.624;37.304;2023-04-19T15:46:43;6.93;;;3.90;;
74912;SDS011;63878;55.624;37.304;2023-04-19T15:56:44;3.78;;;3.10;;
74912;SDS011;63878;55.624;37.304;2023-04-19T16:06:44;6.63;;;4.00;;
74912;SDS011;63878;55.624;37.304;2023-04-19T16:16:45;6.93;;;2.73;;
74912;SDS011;63878;55.624;37.304;2023-04-19T16:26:47;6.50;;;3.67;;
74912;SDS011;63878;55.624;37.304;2023-04-19T16:36:47;5.70;;;3.55;;
74912;SDS011;63878;55.624;37.304;2023-04-19T16:46:48;4.88;;;3.80;;
74912;SDS011;63878;55.624;37.304;2023-04-19T16:56:48;5.32;;;3.20;;
74912;SDS011;63878;55.624;37.304;2023-04-19T17:06:49;4.97;;;2.70;;
74912;SDS011;63878;55.624;37.304;2023-04-19T17:16:50;5.63;;;3.30;;
74912;SDS011;63878;55.624;37.304;2023-04-19T17:26:50;7.43;;;3.30;;
74912;SDS011;63878;55.624;37.304;2023-04-19T17:36:51;3.25;;;2.55;;
74912;SDS011;63878;55.624;37.304;2023-04-19T17:46:52;10.60;;;3.88;;
74912;SDS011;63878;55.624;37.304;2023-04-19T17:56:52;4.80;;;3.15;;
74912;SDS011;63878;55.624;37.304;2023-04-19T18:06:53;6.45;;;3.90;;
74912;SDS011;63878;55.624;37.304;2023-04-19T18:16:53;6.13;;;3.83;;
74912;SDS011;63878;55.624;37.304;2023-04-19T18:26:54;8.15;;;4.72;;
74912;SDS011;63878;55.624;37.304;2023-04-19T18:36:58;7.57;;;4.70;;
74912;SDS011;63878;55.624;37.304;2023-04-19T18:47:01;9.48;;;4.30;;
74912;SDS011;63878;55.624;37.304;2023-04-19T18:57:03;9.05;;;4.32;;
74912;SDS011;63878;55.624;37.304;2023-04-19T19:07:05;11.32;;;5.50;;
74912;SDS011;63878;55.624;37.304;2023-04-19T19:17:05;11.02;;;4.25;;
74912;SDS011;63878;55.624;37.304;2023-04-19T19:27:05;7.68;;;3.75;;
74912;SDS011;63878;55.624;37.304;2023-04-19T19:37:06;10.80;;;4.43;;
74912;SDS011;63878;55.624;37.304;2023-04-19T19:47:07;8.63;;;4.70;;
74912;SDS011;63878;55.624;37.304;2023-04-19T19:57:07;7.57;;;4.60;;
74912;SDS011;63878;55.624;37.304;2023-04-19T20:07:10;8.23;;;4.03;;
74912;SDS011;63878;55.624;37.304;2023-04-19T20:17:11;14.60;;;6.93;;
74912;SDS011;63878;55.624;37.304;2023-04-19T20:27:12;7.47;;;3.65;;
74912;SDS011;63878;55.624;37.304;2023-04-19T20:37:13;4.47;;;3.35;;
74912;SDS011;63878;55.624;37.304;2023-04-19T20:47:14;5.88;;;3.08;;
74912;SDS011;63878;55.624;37.304;2023-04-19T20:57:14;5.32;;;3.20;;
74912;SDS011;63878;55.624;37.304;2023-04-19T21:07:15;8.50;;;3.57;;
74912;SDS011;63878;55.624;37.304;2023-04-19T21:17:15;6.97;;;3.20;;
74912;SDS011;63878;55.624;37.304;2023-04-19T21:27:16;9.75;;;3.25;;
74912;SDS011;63878;55.624;37.304;2023-04-19T21:37:17;8.13;;;3.60;;
74912;SDS011;63878;55.624;37.304;2023-04-19T21:47:17;6.03;;;3.30;;
74912;SDS011;63878;55.624;37.304;2023-04-19T21:57:18;9.35;;;3.30;;
74912;SDS011;63878;55.624;37.304;2023-04-19T22:07:18;8.27;;;3.47;;
74912;SDS011;63878;55.624;37.304;2023-04-19T22:17:19;6.68;;;3.58;;
74912;SDS011;63878;55.624;37.304;2023-04-19T22:27:19;8.87;;;3.53;;
74912;SDS011;63878;55.624;37.304;2023-04-19T22:37:20;7.35;;;4.05;;
74912;SDS011;63878;55.624;37.304;2023-04-19T22:47:21;8.57;;;4.00;;
74912;SDS011;63878;55.624;37.304;2023-04-19T22:57:22;11.98;;;4.57;;
74912;SDS011;63878;55.624;37.304;2023-04-19T23:07:22;7.27;;;4.63;;
74912;SDS011;63878;55.624;37.304;2023-04-19T23:17:23;7.80;;;4.50;;
74912;SDS011;63878;55.624;37.304;2023-04-19T23:27:24;7.63;;;4.57;;
74912;SDS011;63878;55.624;37.304;2023-04-19T23:37:24;8.75;;;4.03;;
74912;SDS011;63878;55.624;37.304;2023-04-19T23:47:24;7.72;;;3.55;;
74912;SDS011;63878;55.624;37.304;2023-04-19T23:57:25;8.93;;;4.43;;
